Home > Products > Valid Products > TAF

000
FTUS43 KLBF 080500
TAFVTN
TAF
KVTN 080525Z 0806/0906 14006KT P6SM OVC060
     FM081500 21008KT P6SM OVC100
     FM081800 21010KT P6SM VCSH OVC150
     FM090000 22006KT P6SM OVC250=



000
FTUS43 KLBF 080500
TAFLBF
TAF
KLBF 080525Z 0806/0906 13005KT P6SM BKN070 OVC100
     FM081800 26004KT P6SM VCSH OVC050
     FM090000 04003KT P6SM OVC100=



000
FTUS43 KLBF 080500
TAFLBF
TAF
KLBF 080525Z 0806/0906 13005KT P6SM BKN070 OVC100
     FM081800 26004KT P6SM VCSH OVC050
     FM090000 04003KT P6SM OVC100=



000
FTUS43 KLBF 080500
TAFVTN
TAF
KVTN 080525Z 0806/0906 14006KT P6SM OVC060
     FM081500 21008KT P6SM OVC100
     FM081800 21010KT P6SM VCSH OVC150
     FM090000 22006KT P6SM OVC250=



000
FTUS43 KLBF 080000 RRB
TAFVTN
TAF
KVTN 080048Z 0801/0824 15006KT P6SM OVC060
     FM081500 21008KT P6SM OVC100=



000
FTUS43 KLBF 080000 RRB
TAFLBF
TAF
KLBF 080046Z 0801/0824 13005KT P6SM BKN070 OVC100=



000
FTUS43 KLBF 071700
TAFLBF
TAF
KLBF 071720Z 0718/0818 13008KT P6SM SCT050 BKN080
     FM080000 13005KT P6SM BKN080 OVC150=



000
FTUS43 KLBF 071700
TAFVTN
TAF
KVTN 071720Z 0718/0818 15011KT P6SM SCT035 BKN050 BKN070
     FM080300 16008KT P6SM SCT080 BKN150
     FM081000 20005KT P6SM OVC080=



000
FTUS43 KLBF 071700
TAFLBF
TAF
KLBF 071720Z 0718/0818 13008KT P6SM SCT050 BKN080
     FM080000 13005KT P6SM BKN080 OVC150=



000
FTUS43 KLBF 071700
TAFVTN
TAF
KVTN 071720Z 0718/0818 15011KT P6SM SCT035 BKN050 BKN070
     FM080300 16008KT P6SM SCT080 BKN150
     FM081000 20005KT P6SM OVC080=



000
FTUS43 KLBF 071100
TAFVTN
TAF
KVTN 071128Z 0712/0812 VRB03KT P6SM SKC
     FM071600 15012KT P6SM SCT250
     FM072100 15012KT P6SM BKN070 OVC200
     FM080600 16008KT P6SM BKN100 OVC200=



000
FTUS43 KLBF 071100
TAFLBF
TAF
KLBF 071128Z 0712/0812 12007KT P6SM SKC
     FM071600 13009KT P6SM SCT250
     FM080100 VRB06KT P6SM BKN100 OVC200=



000
FTUS43 KLBF 070500
TAFVTN
TAF
KVTN 070521Z 0706/0806 VRB03KT P6SM SKC
     FM071400 15008KT P6SM SCT060 BKN250=



000
FTUS43 KLBF 070500
TAFLBF
TAF
KLBF 070521Z 0706/0806 VRB03KT P6SM SCT060 BKN120
     FM071500 14006KT P6SM SCT050 SCT250
     FM080100 VRB05KT P6SM SCT120 OVC250=



000
FTUS43 KLBF 062300
TAFLBF
TAF
KLBF 062320Z 0700/0724 03012KT P6SM SCT050 SCT120
     FM070100 VRB03KT P6SM SCT050
     FM071500 14006KT P6SM SCT050 BKN250=



000
FTUS43 KLBF 062300
TAFVTN
TAF
KVTN 062320Z 0700/0724 01008KT P6SM SCT050 BKN070
     FM070100 VRB03KT P6SM FEW050
     FM071400 17006KT P6SM BKN250=



000
FTUS43 KLBF 062200 AAA
TAFLBF
TAF AMD
KLBF 062208Z 0622/0718 02014G21KT 6SM HZ SCT050 BKN120
     FM070200 VRB04KT P6SM SCT050=



000
FTUS43 KLBF 061700
TAFVTN
TAF
KVTN 061731Z 0618/0718 36014G21KT 3SM HZ SCT030 BKN050
     FM062100 01013G20KT P6SM SCT050
     FM070200 VRB05KT P6SM FEW050=



000
FTUS43 KLBF 061700
TAFLBF
TAF
KLBF 061731Z 0618/0718 01014G21KT 5SM HZ BKN030
     FM062100 02012KT P6SM SCT030 BKN050
     FM070200 VRB04KT P6SM SCT050=



000
FTUS43 KLBF 061500 AAA
TAFVTN
TAF AMD
KVTN 061522Z 0615/0712 36012G19KT 4SM HZ SCT015 BKN025
     FM061800 36014G21KT P6SM SCT025 BKN050
     FM070000 02011KT P6SM SCT100=



000
FTUS43 KLBF 061100 RRA
TAFLBF
TAF
KLBF 061152Z 0612/0712 36010G16KT P6SM OVC010
     FM061500 35018G24KT P6SM OVC015
     FM061800 01015G22KT P6SM OVC025
     FM062000 01013G25KT P6SM SCT025 OVC035
     FM070000 02006KT P6SM SCT100=



000
FTUS43 KLBF 061100 RRA
TAFVTN
TAF
KVTN 061152Z 0612/0712 35012G19KT P6SM FEW009 BKN013 OVC016
      TEMPO 0612/0614 5SM -SHRA BR BKN008 OVC015
     FM061600 35015G20KT P6SM SCT015 OVC025
     FM061800 36014G21KT P6SM SCT015 OVC050
     FM070000 02011KT P6SM SCT100=



000
FTUS43 KLBF 061100 RRA
TAFLBF
TAF
KLBF 061152Z 0612/0712 36010G16KT P6SM OVC010
     FM061500 35018G24KT P6SM OVC015
     FM061800 01015G22KT P6SM OVC025
     FM062000 01013G25KT P6SM SCT025 OVC035
     FM070000 02006KT P6SM SCT100=



000
FTUS43 KLBF 061100 RRA
TAFVTN
TAF
KVTN 061152Z 0612/0712 35012G19KT P6SM FEW009 BKN013 OVC016
      TEMPO 0612/0614 5SM -SHRA BR BKN008 OVC015
     FM061600 35015G20KT P6SM SCT015 OVC025
     FM061800 36014G21KT P6SM SCT015 OVC050
     FM070000 02011KT P6SM SCT100=



000
FTUS43 KLBF 061000 AAA
TAFLBF
TAF AMD
KLBF 061028Z 0610/0706 35007KT P6SM OVC012
     FM061100 35011KT P6SM OVC012
     FM061500 35018G24KT P6SM OVC015
     FM061800 01015G22KT P6SM OVC025
     FM070000 02006KT P6SM SCT100=



000
FTUS43 KLBF 060900 AAC
TAFVTN
TAF AMD
KVTN 060943Z 0610/0706 35012KT P6SM BKN008 BKN013 OVC019
      TEMPO 0610/0614 5SM -SHRA BR BKN008 OVC015
     FM061600 35015G20KT P6SM SCT015 OVC050
     FM070000 02011KT P6SM SCT100=



000
FTUS43 KLBF 060700 AAB
TAFVTN
TAF AMD
KVTN 060703Z 0607/0706 04010KT P6SM -SHRA FEW016 BKN040 OVC110
     FM060800 35018G24KT P6SM -SHRA BKN008 OVC015
     FM061000 34015G20KT P6SM -SHRA BKN008 OVC015
     FM061600 35015G20KT P6SM SCT015 OVC050
     FM070000 02011KT P6SM SCT100=



000
FTUS43 KLBF 060700 AAB
TAFVTN
TAF AMD
KVTN 060703Z 0607/0706 04010KT P6SM -SHRA FEW016 BKN040 OVC110
     FM060800 35018G24KT P6SM -SHRA BKN008 OVC015
     FM061000 34015G20KT P6SM -SHRA BKN008 OVC015
     FM061600 35015G20KT P6SM SCT015 OVC050
     FM070000 02011KT P6SM SCT100=



000
FTUS43 KLBF 060500 AAA
TAFVTN
TAF AMD
KVTN 060551Z 0606/0706 30014KT 6SM -SHRA BR BKN007 BKN014 OVC023
     FM060800 35018G24KT 4SM -SHRA BR BKN008 OVC015
     FM061000 34015G20KT P6SM -SHRA BKN008 OVC015
     FM061600 35015G20KT P6SM SCT015 OVC050
     FM070000 02011KT P6SM SCT100=



000
FTUS43 KLBF 060500 AAA
TAFVTN
TAF AMD
KVTN 060551Z 0606/0706 30014KT 6SM -SHRA BR BKN007 BKN014 OVC023
     FM060800 35018G24KT 4SM -SHRA BR BKN008 OVC015
     FM061000 34015G20KT P6SM -SHRA BKN008 OVC015
     FM061600 35015G20KT P6SM SCT015 OVC050
     FM070000 02011KT P6SM SCT100=



000
FTUS43 KLBF 060500
TAFLBF
TAF
KLBF 060532Z 0606/0706 35004KT P6SM -SHRA SCT050 OVC100
     FM061100 35011KT 4SM BR FEW015 OVC020
     FM061500 35018G24KT P6SM OVC015
     FM061800 01015G22KT P6SM OVC025
     FM070000 02006KT P6SM SCT100=



000
FTUS43 KLBF 060500
TAFVTN
TAF
KVTN 060532Z 0606/0706 36018G24KT 5SM -TSRA BKN018CB OVC040
     FM060800 35018G24KT 4SM -SHRA BR FEW008 OVC015
     FM061000 34015G20KT P6SM BKN008 OVC015
     FM061400 35015G20KT P6SM SCT015 OVC050
     FM070000 02011KT P6SM SCT100=



000
FTUS43 KLBF 060500
TAFLBF
TAF
KLBF 060532Z 0606/0706 35004KT P6SM -SHRA SCT050 OVC100
     FM061100 35011KT 4SM BR FEW015 OVC020
     FM061500 35018G24KT P6SM OVC015
     FM061800 01015G22KT P6SM OVC025
     FM070000 02006KT P6SM SCT100=



000
FTUS43 KLBF 060500
TAFVTN
TAF
KVTN 060532Z 0606/0706 36018G24KT 5SM -TSRA BKN018CB OVC040
     FM060800 35018G24KT 4SM -SHRA BR FEW008 OVC015
     FM061000 34015G20KT P6SM BKN008 OVC015
     FM061400 35015G20KT P6SM SCT015 OVC050
     FM070000 02011KT P6SM SCT100=



000
FTUS43 KLBF 060500
TAFVTN
TAF
KVTN 060520Z 0606/0706 36018G24KT 5SM -TSRA SCT018CB OVC040
     FM060900 35018G24KT 4SM BR OVC015
     FM061300 34015G20KT P6SM BKN015 OVC050
     FM061600 35015G20KT P6SM SCT015 OVC050
     FM070000 02011KT P6SM SCT100=



000
FTUS43 KLBF 060500
TAFLBF
TAF
KLBF 060520Z 0606/0706 35004KT P6SM -SHRA SCT050 OVC100
     FM061100 35011KT 4SM BR OVC015
     FM061500 35018G24KT P6SM OVC015
     FM061800 01015G22KT P6SM OVC025
     FM070000 02006KT P6SM SCT100=



000
FTUS43 KLBF 060300 AAE
TAFVTN
TAF AMD
KVTN 060327Z 0603/0624 36020G28KT P6SM VCTS OVC008CB
     FM060600 34014KT 4SM -SHRA BR OVC025
     FM061300 36013KT P6SM SCT025 BKN100=



000
FTUS43 KLBF 060200 AAD
TAFVTN
TAF AMD
KVTN 060224Z 0602/0624 36020G28KT P6SM -TSRA SCT010CB OVC050
     FM060300 35023G32KT P6SM VCTS SCT025CB OVC060
     FM060600 34014KT 4SM -SHRA BR OVC025
     FM061300 36013KT P6SM SCT025 BKN100=



000
FTUS43 KLBF 060200 AAC
TAFVTN
TAF AMD
KVTN 060205Z 0602/0624 33024G37KT 3/4SM TSRA BKN013CB OVC050
     FM060300 35023G32KT P6SM VCTS SCT025CB OVC060
     FM060600 34014KT 4SM -SHRA BR OVC025
     FM061300 36013KT P6SM SCT025 BKN100=



000
FTUS43 KLBF 060200 AAA
TAFLBF
TAF AMD
KLBF 060203Z 0602/0624 25018G34KT P6SM VCTS SCT050CB OVC120
     FM060500 35018G26KT P6SM VCTS OVC070CB
     FM061800 01015G22KT P6SM SCT250=



000
FTUS43 KLBF 060200 AAB
TAFVTN
TAF AMD
KVTN 060200Z 0602/0624 31024G33KT 2SM TSRA SCT020CB OVC050
     FM060300 35023G32KT P6SM VCTS SCT025CB OVC060
     FM060600 34014KT 4SM -SHRA BR OVC025
     FM061300 36013KT P6SM SCT025 BKN100=



000
FTUS43 KLBF 060200 AAB
TAFVTN
TAF AMD
KVTN 060200Z 0602/0624 31024G33KT 2SM TSRA SCT020CB OVC050
     FM060300 35023G32KT P6SM VCTS SCT025CB OVC060
     FM060600 34014KT 4SM -SHRA BR OVC025
     FM061300 36013KT P6SM SCT025 BKN100=



000
FTUS43 KLBF 060100 AAA
TAFVTN
TAF AMD
KVTN 060118Z 0601/0624 11006KT 5SM -TSRA BKN025CB OVC100
     FM060200 36024G33KT P6SM VCTS SCT025CB OVC060
     FM060600 34014KT 4SM -SHRA BR OVC025
     FM061300 36013KT P6SM SCT025 BKN100=



000
FTUS43 KLBF 060100 AAA
TAFVTN
TAF AMD
KVTN 060118Z 0601/0624 11006KT 5SM -TSRA BKN025CB OVC100
     FM060200 36024G33KT P6SM VCTS SCT025CB OVC060
     FM060600 34014KT 4SM -SHRA BR OVC025
     FM061300 36013KT P6SM SCT025 BKN100=



000
FTUS43 KLBF 052300
TAFVTN
TAF
KVTN 052337Z 0600/0624 15009KT P6SM SCT250
     FM060300 32018G28KT 5SM -TSRA BKN020CB OVC100
     FM060600 34014KT 4SM -SHRA BR OVC025
     FM061300 36013KT P6SM SCT025 BKN100=



000
FTUS43 KLBF 052300
TAFLBF
TAF
KLBF 052337Z 0600/0624 11008KT P6SM SCT250
     FM060100 14014G22KT P6SM VCTS BKN050CB
     FM060500 35018G26KT P6SM VCTS OVC070CB
     FM061800 01015G22KT P6SM SCT250=



000
FTUS43 KLBF 052300
TAFVTN
TAF
KVTN 052337Z 0600/0624 15009KT P6SM SCT250
     FM060300 32018G28KT 5SM -TSRA BKN020CB OVC100
     FM060600 34014KT 4SM -SHRA BR OVC025
     FM061300 36013KT P6SM SCT025 BKN100=



000
FTUS43 KLBF 052300
TAFLBF
TAF
KLBF 052337Z 0600/0624 11008KT P6SM SCT250
     FM060100 14014G22KT P6SM VCTS BKN050CB
     FM060500 35018G26KT P6SM VCTS OVC070CB
     FM061800 01015G22KT P6SM SCT250=



000
FTUS43 KLBF 051700
TAFVTN
TAF
KVTN 051729Z 0518/0618 20011KT P6SM SCT250
     FM052300 35015G24KT P6SM TS OVC050CB
     FM060400 36018G28KT P6SM OVC050 PROB30 0604/0610 -TSRA BKN020CB
     FM061000 36014G21KT P6SM OVC030=



000
FTUS43 KLBF 051700
TAFLBF
TAF
KLBF 051729Z 0518/0618 17011KT P6SM SCT250
     FM060100 34015G24KT P6SM VCTS BKN050CB
     FM060400 35014G21KT P6SM OVC050=



000
FTUS43 KLBF 051700
TAFVTN
TAF
KVTN 051729Z 0518/0618 20011KT P6SM SCT250
     FM052300 35015G24KT P6SM TS OVC050CB
     FM060400 36018G28KT P6SM OVC050 PROB30 0604/0610 -TSRA BKN020CB
     FM061000 36014G21KT P6SM OVC030=



000
FTUS43 KLBF 051700
TAFLBF
TAF
KLBF 051729Z 0518/0618 17011KT P6SM SCT250
     FM060100 34015G24KT P6SM VCTS BKN050CB
     FM060400 35014G21KT P6SM OVC050=



000
FTUS43 KLBF 051100
TAFLBF
TAF
KLBF 051120Z 0512/0612 11009KT P6SM SKC
     FM051800 16010KT P6SM SKC PROB30 0600/0606 P6SM TSRA BKN050CB=



000
FTUS43 KLBF 051100
TAFVTN
TAF
KVTN 051120Z 0512/0612 21012KT P6SM SKC
     FM051500 20011KT P6SM SKC
     FM051900 17011G18KT P6SM SKC PROB30 0602/0606 P6SM TSRA
      BKN050CB=



    US Dept of Commerce
    National Oceanic and Atmospheric Administration
    National Weather Service
    1325 East West Highway
    Silver Spring, MD 20910
    Page Author: NWS Internet Services Team
Disclaimer
Information Quality
Credits
Glossary
Privacy Policy
Freedom of Information Act (FOIA)
About Us
Career Opportunities